sensor_id;sensor_type;location;lat;lon;timestamp;pressure;altitude;pressure_sealevel;temperature;humidity
63281;BME280;49406;51.044;3.766;2023-01-30T00:02:09;102155.35;;;5.21;100.00
63281;BME280;49406;51.044;3.766;2023-01-30T00:04:44;102150.14;;;5.21;100.00
63281;BME280;49406;51.044;3.766;2023-01-30T00:07:19;102149.16;;;5.22;100.00
63281;BME280;49406;51.044;3.766;2023-01-30T00:09:53;102150.77;;;5.23;100.00
63281;BME280;49406;51.044;3.766;2023-01-30T00:12:28;102148.05;;;5.21;100.00
63281;BME280;49406;51.044;3.766;2023-01-30T00:15:03;102142.59;;;5.19;100.00
63281;BME280;49406;51.044;3.766;2023-01-30T00:17:38;102136.38;;;5.20;100.00
63281;BME280;49406;51.044;3.766;2023-01-30T00:20:13;102130.40;;;5.22;100.00
63281;BME280;49406;51.044;3.766;2023-01-30T00:22:48;102124.55;;;5.22;100.00
63281;BME280;49406;51.044;3.766;2023-01-30T00:25:23;102117.44;;;5.26;100.00
63281;BME280;49406;51.044;3.766;2023-01-30T00:27:59;102107.12;;;5.27;100.00
63281;BME280;49406;51.044;3.766;2023-01-30T00:30:34;102100.52;;;5.28;100.00
63281;BME280;49406;51.044;3.766;2023-01-30T00:33:09;102106.73;;;5.27;100.00
63281;BME280;49406;51.044;3.766;2023-01-30T00:35:45;102112.02;;;5.25;100.00
63281;BME280;49406;51.044;3.766;2023-01-30T00:38:21;102114.50;;;5.23;100.00
63281;BME280;49406;51.044;3.766;2023-01-30T00:40:56;102118.56;;;5.24;100.00
63281;BME280;49406;51.044;3.766;2023-01-30T00:43:30;102129.22;;;5.26;100.00
63281;BME280;49406;51.044;3.766;2023-01-30T00:46:30;102125.36;;;5.28;100.00
63281;BME280;49406;51.044;3.766;2023-01-30T00:49:23;102133.48;;;5.35;100.00
63281;BME280;49406;51.044;3.766;2023-01-30T00:51:58;102131.96;;;5.42;100.00
63281;BME280;49406;51.044;3.766;2023-01-30T00:54:33;102140.96;;;5.49;100.00
63281;BME280;49406;51.044;3.766;2023-01-30T00:57:08;102139.00;;;5.55;100.00
63281;BME280;49406;51.044;3.766;2023-01-30T00:59:42;102144.85;;;5.61;100.00
63281;BME280;49406;51.044;3.766;2023-01-30T01:02:17;102142.64;;;5.65;100.00
63281;BME280;49406;51.044;3.766;2023-01-30T01:04:52;102137.55;;;5.68;100.00
63281;BME280;49406;51.044;3.766;2023-01-30T01:07:26;102140.59;;;5.72;100.00
63281;BME280;49406;51.044;3.766;2023-01-30T01:10:01;102138.38;;;5.73;100.00
63281;BME280;49406;51.044;3.766;2023-01-30T01:12:36;102129.63;;;5.76;100.00
63281;BME280;49406;51.044;3.766;2023-01-30T01:15:11;102125.02;;;5.78;100.00
63281;BME280;49406;51.044;3.766;2023-01-30T01:17:46;102115.55;;;5.79;100.00
63281;BME280;49406;51.044;3.766;2023-01-30T01:20:22;102112.28;;;5.80;100.00
63281;BME280;49406;51.044;3.766;2023-01-30T01:22:57;102101.73;;;5.81;100.00
63281;BME280;49406;51.044;3.766;2023-01-30T01:25:31;102106.64;;;5.82;100.00
63281;BME280;49406;51.044;3.766;2023-01-30T01:28:06;102108.23;;;5.86;100.00
63281;BME280;49406;51.044;3.766;2023-01-30T01:30:41;102118.84;;;5.89;100.00
63281;BME280;49406;51.044;3.766;2023-01-30T01:33:15;102121.23;;;5.92;100.00
63281;BME280;49406;51.044;3.766;2023-01-30T01:35:50;102116.46;;;5.94;100.00
63281;BME280;49406;51.044;3.766;2023-01-30T01:38:26;102114.88;;;5.97;100.00
63281;BME280;49406;51.044;3.766;2023-01-30T01:41:01;102112.40;;;6.00;100.00
63281;BME280;49406;51.044;3.766;2023-01-30T01:46:30;102113.92;;;6.10;100.00
63281;BME280;49406;51.044;3.766;2023-01-30T01:49:13;102100.42;;;6.15;100.00
63281;BME280;49406;51.044;3.766;2023-01-30T01:51:53;102100.23;;;6.18;100.00
63281;BME280;49406;51.044;3.766;2023-01-30T01:54:32;102101.71;;;6.21;100.00
63281;BME280;49406;51.044;3.766;2023-01-30T01:57:14;102102.41;;;6.24;100.00
63281;BME280;49406;51.044;3.766;2023-01-30T01:59:53;102099.29;;;6.28;100.00
63281;BME280;49406;51.044;3.766;2023-01-30T02:02:30;102093.02;;;6.31;100.00
63281;BME280;49406;51.044;3.766;2023-01-30T02:05:07;102097.52;;;6.35;100.00
63281;BME280;49406;51.044;3.766;2023-01-30T02:07:49;102089.75;;;6.40;100.00
63281;BME280;49406;51.044;3.766;2023-01-30T02:10:30;102082.47;;;6.44;100.00
63281;BME280;49406;51.044;3.766;2023-01-30T02:13:08;102070.80;;;6.48;100.00
63281;BME280;49406;51.044;3.766;2023-01-30T02:15:42;102062.45;;;6.51;100.00
63281;BME280;49406;51.044;3.766;2023-01-30T02:18:18;102056.02;;;6.55;100.00
63281;BME280;49406;51.044;3.766;2023-01-30T02:21:16;102028.48;;;6.57;100.00
63281;BME280;49406;51.044;3.766;2023-01-30T02:24:16;102022.58;;;6.57;100.00
63281;BME280;49406;51.044;3.766;2023-01-30T02:27:13;102027.34;;;6.55;100.00
63281;BME280;49406;51.044;3.766;2023-01-30T02:30:11;102039.48;;;6.55;100.00
63281;BME280;49406;51.044;3.766;2023-01-30T02:33:00;102042.23;;;6.54;100.00
63281;BME280;49406;51.044;3.766;2023-01-30T02:35:44;102034.02;;;6.53;100.00
63281;BME280;49406;51.044;3.766;2023-01-30T02:38:32;102018.56;;;6.53;100.00
63281;BME280;49406;51.044;3.766;2023-01-30T02:41:18;102014.23;;;6.53;100.00
63281;BME280;49406;51.044;3.766;2023-01-30T02:44:02;102016.60;;;6.52;100.00
63281;BME280;49406;51.044;3.766;2023-01-30T02:46:45;102018.38;;;6.48;100.00
63281;BME280;49406;51.044;3.766;2023-01-30T02:49:27;102030.02;;;6.48;100.00
63281;BME280;49406;51.044;3.766;2023-01-30T02:52:05;102031.48;;;6.54;100.00
63281;BME280;49406;51.044;3.766;2023-01-30T02:54:42;102023.48;;;6.61;100.00
63281;BME280;49406;51.044;3.766;2023-01-30T02:57:19;102022.98;;;6.67;100.00
63281;BME280;49406;51.044;3.766;2023-01-30T03:00:02;102020.11;;;6.72;100.00
63281;BME280;49406;51.044;3.766;2023-01-30T03:03:10;102019.88;;;6.79;100.00
63281;BME280;49406;51.044;3.766;2023-01-30T03:06:23;102024.63;;;6.84;100.00
63281;BME280;49406;51.044;3.766;2023-01-30T03:09:10;102025.12;;;6.88;100.00
63281;BME280;49406;51.044;3.766;2023-01-30T03:11:56;102016.11;;;6.92;100.00
63281;BME280;49406;51.044;3.766;2023-01-30T03:14:40;102014.94;;;6.93;100.00
63281;BME280;49406;51.044;3.766;2023-01-30T03:17:20;102013.91;;;6.90;100.00
63281;BME280;49406;51.044;3.766;2023-01-30T03:19:56;102012.31;;;6.85;100.00
63281;BME280;49406;51.044;3.766;2023-01-30T03:22:31;102009.23;;;6.78;100.00
63281;BME280;49406;51.044;3.766;2023-01-30T03:25:07;102007.18;;;6.74;100.00
63281;BME280;49406;51.044;3.766;2023-01-30T03:27:42;102007.73;;;6.71;100.00
63281;BME280;49406;51.044;3.766;2023-01-30T03:30:19;102015.09;;;6.69;100.00
63281;BME280;49406;51.044;3.766;2023-01-30T03:32:53;102013.17;;;6.69;100.00
63281;BME280;49406;51.044;3.766;2023-01-30T03:35:29;102017.48;;;6.68;100.00
63281;BME280;49406;51.044;3.766;2023-01-30T03:38:04;102018.00;;;6.68;100.00
63281;BME280;49406;51.044;3.766;2023-01-30T03:40:39;102018.95;;;6.70;100.00
63281;BME280;49406;51.044;3.766;2023-01-30T03:43:14;102010.70;;;6.68;100.00
63281;BME280;49406;51.044;3.766;2023-01-30T03:45:48;102007.20;;;6.71;100.00
63281;BME280;49406;51.044;3.766;2023-01-30T03:48:23;102010.16;;;6.75;100.00
63281;BME280;49406;51.044;3.766;2023-01-30T03:50:58;102001.77;;;6.74;100.00
63281;BME280;49406;51.044;3.766;2023-01-30T03:53:32;102007.71;;;6.79;100.00
63281;BME280;49406;51.044;3.766;2023-01-30T03:56:07;102012.67;;;6.81;100.00
63281;BME280;49406;51.044;3.766;2023-01-30T03:58:42;102013.49;;;6.84;100.00
63281;BME280;49406;51.044;3.766;2023-01-30T04:01:17;102018.85;;;6.87;100.00
63281;BME280;49406;51.044;3.766;2023-01-30T04:03:51;102017.31;;;6.92;100.00
63281;BME280;49406;51.044;3.766;2023-01-30T04:06:26;102013.45;;;6.96;100.00
63281;BME280;49406;51.044;3.766;2023-01-30T04:09:00;102015.60;;;6.98;100.00
63281;BME280;49406;51.044;3.766;2023-01-30T04:11:35;102010.12;;;7.00;100.00
63281;BME280;49406;51.044;3.766;2023-01-30T04:14:10;102012.05;;;7.04;100.00
63281;BME280;49406;51.044;3.766;2023-01-30T04:16:46;102012.40;;;7.08;100.00
63281;BME280;49406;51.044;3.766;2023-01-30T04:19:21;102008.61;;;7.09;100.00
63281;BME280;49406;51.044;3.766;2023-01-30T04:21:55;102002.10;;;7.12;100.00
63281;BME280;49406;51.044;3.766;2023-01-30T04:24:30;102001.13;;;7.13;100.00
63281;BME280;49406;51.044;3.766;2023-01-30T04:27:05;101999.83;;;7.15;100.00
63281;BME280;49406;51.044;3.766;2023-01-30T04:29:39;102003.74;;;7.18;100.00
63281;BME280;49406;51.044;3.766;2023-01-30T04:32:14;102006.29;;;7.21;100.00
63281;BME280;49406;51.044;3.766;2023-01-30T04:34:49;102009.70;;;7.23;100.00
63281;BME280;49406;51.044;3.766;2023-01-30T04:37:23;102011.99;;;7.23;100.00
63281;BME280;49406;51.044;3.766;2023-01-30T04:39:58;102005.84;;;7.26;100.00
63281;BME280;49406;51.044;3.766;2023-01-30T04:42:33;102000.19;;;7.29;100.00
63281;BME280;49406;51.044;3.766;2023-01-30T04:45:09;101994.90;;;7.32;100.00
63281;BME280;49406;51.044;3.766;2023-01-30T04:47:44;101988.05;;;7.34;100.00
63281;BME280;49406;51.044;3.766;2023-01-30T04:50:18;101992.11;;;7.40;100.00
63281;BME280;49406;51.044;3.766;2023-01-30T04:52:53;101990.20;;;7.44;100.00
63281;BME280;49406;51.044;3.766;2023-01-30T04:55:28;101997.84;;;7.49;100.00
63281;BME280;49406;51.044;3.766;2023-01-30T04:58:02;102001.43;;;7.51;100.00
63281;BME280;49406;51.044;3.766;2023-01-30T05:00:37;102001.20;;;7.54;100.00
63281;BME280;49406;51.044;3.766;2023-01-30T05:03:12;101999.55;;;7.56;100.00
63281;BME280;49406;51.044;3.766;2023-01-30T05:05:47;101997.70;;;7.58;100.00
63281;BME280;49406;51.044;3.766;2023-01-30T05:08:22;102000.34;;;7.59;100.00
63281;BME280;49406;51.044;3.766;2023-01-30T05:10:57;101999.20;;;7.61;100.00
63281;BME280;49406;51.044;3.766;2023-01-30T05:13:32;101998.30;;;7.65;100.00
63281;BME280;49406;51.044;3.766;2023-01-30T05:16:07;102006.52;;;7.66;100.00
63281;BME280;49406;51.044;3.766;2023-01-30T05:18:42;102017.40;;;7.68;100.00
63281;BME280;49406;51.044;3.766;2023-01-30T05:21:20;102026.58;;;7.72;100.00
63281;BME280;49406;51.044;3.766;2023-01-30T05:23:55;102026.02;;;7.74;100.00
63281;BME280;49406;51.044;3.766;2023-01-30T05:26:30;102022.46;;;7.73;100.00
63281;BME280;49406;51.044;3.766;2023-01-30T05:29:04;102020.13;;;7.75;100.00
63281;BME280;49406;51.044;3.766;2023-01-30T05:31:39;102020.66;;;7.76;100.00
63281;BME280;49406;51.044;3.766;2023-01-30T05:34:14;102025.42;;;7.78;100.00
63281;BME280;49406;51.044;3.766;2023-01-30T05:36:48;102033.10;;;7.83;100.00
63281;BME280;49406;51.044;3.766;2023-01-30T05:39:23;102030.73;;;7.84;100.00
63281;BME280;49406;51.044;3.766;2023-01-30T05:41:58;102025.52;;;7.89;100.00
63281;BME280;49406;51.044;3.766;2023-01-30T05:44:32;102023.04;;;7.92;100.00
63281;BME280;49406;51.044;3.766;2023-01-30T05:47:07;102017.02;;;7.95;100.00
63281;BME280;49406;51.044;3.766;2023-01-30T05:49:42;102013.81;;;7.97;100.00
63281;BME280;49406;51.044;3.766;2023-01-30T05:52:16;102016.77;;;7.97;100.00
63281;BME280;49406;51.044;3.766;2023-01-30T05:54:51;102026.38;;;7.98;100.00
63281;BME280;49406;51.044;3.766;2023-01-30T05:57:25;102027.86;;;8.00;100.00
63281;BME280;49406;51.044;3.766;2023-01-30T06:00:00;102030.91;;;8.03;100.00
63281;BME280;49406;51.044;3.766;2023-01-30T06:02:35;102034.46;;;8.05;100.00
63281;BME280;49406;51.044;3.766;2023-01-30T06:05:10;102036.24;;;8.06;100.00
63281;BME280;49406;51.044;3.766;2023-01-30T06:07:45;102039.08;;;8.06;100.00
63281;BME280;49406;51.044;3.766;2023-01-30T06:10:19;102048.40;;;8.09;100.00
63281;BME280;49406;51.044;3.766;2023-01-30T06:12:54;102056.83;;;8.16;100.00
63281;BME280;49406;51.044;3.766;2023-01-30T06:15:29;102059.26;;;8.21;100.00
63281;BME280;49406;51.044;3.766;2023-01-30T06:18:03;102048.21;;;8.19;100.00
63281;BME280;49406;51.044;3.766;2023-01-30T06:20:38;102056.64;;;8.25;100.00
63281;BME280;49406;51.044;3.766;2023-01-30T06:23:13;102057.66;;;8.29;100.00
63281;BME280;49406;51.044;3.766;2023-01-30T06:25:48;102051.18;;;8.32;100.00
63281;BME280;49406;51.044;3.766;2023-01-30T06:28:24;102062.89;;;8.37;100.00
63281;BME280;49406;51.044;3.766;2023-01-30T06:30:59;102065.58;;;8.39;100.00
63281;BME280;49406;51.044;3.766;2023-01-30T06:33:34;102059.94;;;8.38;100.00
63281;BME280;49406;51.044;3.766;2023-01-30T06:36:09;102061.30;;;8.37;100.00
63281;BME280;49406;51.044;3.766;2023-01-30T06:38:44;102067.23;;;8.37;100.00
63281;BME280;49406;51.044;3.766;2023-01-30T06:41:19;102069.13;;;8.33;100.00
63281;BME280;49406;51.044;3.766;2023-01-30T06:43:53;102072.11;;;8.28;100.00
63281;BME280;49406;51.044;3.766;2023-01-30T06:46:28;102082.21;;;8.28;100.00
63281;BME280;49406;51.044;3.766;2023-01-30T06:49:03;102088.55;;;8.25;100.00
63281;BME280;49406;51.044;3.766;2023-01-30T06:51:38;102086.09;;;8.25;100.00
63281;BME280;49406;51.044;3.766;2023-01-30T06:54:13;102077.56;;;8.25;100.00
63281;BME280;49406;51.044;3.766;2023-01-30T06:56:47;102073.77;;;8.22;100.00
63281;BME280;49406;51.044;3.766;2023-01-30T06:59:22;102079.83;;;8.21;100.00
63281;BME280;49406;51.044;3.766;2023-01-30T07:01:57;102073.21;;;8.21;100.00
63281;BME280;49406;51.044;3.766;2023-01-30T07:04:31;102076.15;;;8.21;100.00
63281;BME280;49406;51.044;3.766;2023-01-30T07:07:06;102075.36;;;8.18;100.00
63281;BME280;49406;51.044;3.766;2023-01-30T07:09:41;102083.22;;;8.13;100.00
63281;BME280;49406;51.044;3.766;2023-01-30T07:12:16;102075.30;;;8.06;100.00
63281;BME280;49406;51.044;3.766;2023-01-30T07:14:51;102074.77;;;8.02;100.00
63281;BME280;49406;51.044;3.766;2023-01-30T07:17:26;102072.50;;;7.97;100.00
63281;BME280;49406;51.044;3.766;2023-01-30T07:20:00;102087.60;;;7.96;100.00
63281;BME280;49406;51.044;3.766;2023-01-30T07:22:35;102098.11;;;7.93;100.00
63281;BME280;49406;51.044;3.766;2023-01-30T07:25:10;102089.66;;;7.86;100.00
63281;BME280;49406;51.044;3.766;2023-01-30T07:27:50;102094.95;;;7.84;100.00
63281;BME280;49406;51.044;3.766;2023-01-30T07:30:26;102094.14;;;7.76;100.00
63281;BME280;49406;51.044;3.766;2023-01-30T07:33:01;102098.27;;;7.71;100.00
63281;BME280;49406;51.044;3.766;2023-01-30T07:35:37;102116.52;;;7.70;100.00
63281;BME280;49406;51.044;3.766;2023-01-30T07:38:12;102105.30;;;7.68;100.00
63281;BME280;49406;51.044;3.766;2023-01-30T07:40:46;102117.59;;;7.67;100.00
63281;BME280;49406;51.044;3.766;2023-01-30T07:43:21;102124.39;;;7.62;100.00
63281;BME280;49406;51.044;3.766;2023-01-30T07:45:55;102126.03;;;7.60;100.00
63281;BME280;49406;51.044;3.766;2023-01-30T07:48:30;102133.63;;;7.59;100.00
63281;BME280;49406;51.044;3.766;2023-01-30T07:51:05;102143.80;;;7.56;100.00
63281;BME280;49406;51.044;3.766;2023-01-30T07:53:40;102148.98;;;7.51;100.00
63281;BME280;49406;51.044;3.766;2023-01-30T07:56:15;102145.59;;;7.44;100.00
63281;BME280;49406;51.044;3.766;2023-01-30T07:58:52;102142.77;;;7.40;100.00
63281;BME280;49406;51.044;3.766;2023-01-30T08:01:27;102141.64;;;7.37;100.00
63281;BME280;49406;51.044;3.766;2023-01-30T08:04:02;102135.11;;;7.36;100.00
63281;BME280;49406;51.044;3.766;2023-01-30T08:06:37;102137.90;;;7.36;100.00
63281;BME280;49406;51.044;3.766;2023-01-30T08:09:12;102145.13;;;7.34;100.00
63281;BME280;49406;51.044;3.766;2023-01-30T08:11:46;102146.84;;;7.29;100.00
63281;BME280;49406;51.044;3.766;2023-01-30T08:14:21;102151.04;;;7.29;100.00
63281;BME280;49406;51.044;3.766;2023-01-30T08:16:58;102148.00;;;7.27;100.00
63281;BME280;49406;51.044;3.766;2023-01-30T08:19:32;102146.13;;;7.24;100.00
63281;BME280;49406;51.044;3.766;2023-01-30T08:22:07;102143.88;;;7.21;100.00
63281;BME280;49406;51.044;3.766;2023-01-30T08:24:42;102155.44;;;7.18;100.00
63281;BME280;49406;51.044;3.766;2023-01-30T08:27:16;102155.54;;;7.17;100.00
63281;BME280;49406;51.044;3.766;2023-01-30T08:29:51;102153.27;;;7.21;100.00
63281;BME280;49406;51.044;3.766;2023-01-30T08:32:25;102163.05;;;7.22;100.00
63281;BME280;49406;51.044;3.766;2023-01-30T08:35:00;102175.45;;;7.19;100.00
63281;BME280;49406;51.044;3.766;2023-01-30T08:37:35;102180.04;;;7.20;100.00
63281;BME280;49406;51.044;3.766;2023-01-30T08:40:09;102176.77;;;7.24;100.00
63281;BME280;49406;51.044;3.766;2023-01-30T08:42:45;102174.42;;;7.27;100.00
63281;BME280;49406;51.044;3.766;2023-01-30T08:45:20;102174.34;;;7.29;99.35
63281;BME280;49406;51.044;3.766;2023-01-30T08:47:58;102180.63;;;7.34;98.22
63281;BME280;49406;51.044;3.766;2023-01-30T08:50:33;102188.47;;;7.38;97.18
63281;BME280;49406;51.044;3.766;2023-01-30T08:53:09;102191.36;;;7.40;94.34
63281;BME280;49406;51.044;3.766;2023-01-30T08:55:45;102192.03;;;7.48;94.86
63281;BME280;49406;51.044;3.766;2023-01-30T08:58:23;102185.27;;;7.49;93.17
63281;BME280;49406;51.044;3.766;2023-01-30T09:00:57;102194.42;;;7.51;92.71
63281;BME280;49406;51.044;3.766;2023-01-30T09:03:30;102197.11;;;7.53;91.71
63281;BME280;49406;51.044;3.766;2023-01-30T09:06:05;102209.45;;;7.57;90.60
63281;BME280;49406;51.044;3.766;2023-01-30T09:08:40;102223.84;;;7.60;90.39
63281;BME280;49406;51.044;3.766;2023-01-30T09:11:15;102223.41;;;7.62;90.54
63281;BME280;49406;51.044;3.766;2023-01-30T09:13:48;102214.93;;;7.63;89.08
63281;BME280;49406;51.044;3.766;2023-01-30T09:16:22;102215.48;;;7.68;89.55
63281;BME280;49406;51.044;3.766;2023-01-30T09:18:57;102221.71;;;7.71;88.90
63281;BME280;49406;51.044;3.766;2023-01-30T09:21:32;102216.80;;;7.74;88.46
63281;BME280;49406;51.044;3.766;2023-01-30T09:24:07;102220.26;;;7.78;89.23
63281;BME280;49406;51.044;3.766;2023-01-30T09:26:42;102222.23;;;7.79;89.03
63281;BME280;49406;51.044;3.766;2023-01-30T09:29:17;102214.16;;;7.82;88.49
63281;BME280;49406;51.044;3.766;2023-01-30T09:31:52;102213.17;;;7.84;87.58
63281;BME280;49406;51.044;3.766;2023-01-30T09:34:28;102218.40;;;7.88;87.64
63281;BME280;49406;51.044;3.766;2023-01-30T09:37:03;102221.69;;;7.91;87.54
63281;BME280;49406;51.044;3.766;2023-01-30T09:39:38;102217.05;;;7.93;87.43
63281;BME280;49406;51.044;3.766;2023-01-30T09:45:31;102226.23;;;8.00;86.52
63281;BME280;49406;51.044;3.766;2023-01-30T09:48:14;102232.17;;;8.01;86.53
63281;BME280;49406;51.044;3.766;2023-01-30T09:51:06;102237.73;;;8.09;86.54
63281;BME280;49406;51.044;3.766;2023-01-30T09:56:44;102247.27;;;8.16;86.58
63281;BME280;49406;51.044;3.766;2023-01-30T09:59:24;102239.70;;;8.20;85.39
63281;BME280;49406;51.044;3.766;2023-01-30T10:02:17;102242.73;;;8.21;84.80
63281;BME280;49406;51.044;3.766;2023-01-30T10:04:55;102247.39;;;8.24;84.21
63281;BME280;49406;51.044;3.766;2023-01-30T10:07:41;102253.55;;;8.26;83.78
63281;BME280;49406;51.044;3.766;2023-01-30T10:10:23;102261.91;;;8.30;83.85
63281;BME280;49406;51.044;3.766;2023-01-30T10:13:08;102263.58;;;8.32;84.02
63281;BME280;49406;51.044;3.766;2023-01-30T10:15:53;102258.55;;;8.37;83.62
63281;BME280;49406;51.044;3.766;2023-01-30T10:19:03;102250.90;;;8.41;83.08
63281;BME280;49406;51.044;3.766;2023-01-30T10:21:48;102265.73;;;8.46;83.00
63281;BME280;49406;51.044;3.766;2023-01-30T10:24:40;102267.70;;;8.47;81.92
63281;BME280;49406;51.044;3.766;2023-01-30T10:27:17;102271.02;;;8.52;82.03
63281;BME280;49406;51.044;3.766;2023-01-30T10:29:55;102274.05;;;8.54;81.41
63281;BME280;49406;51.044;3.766;2023-01-30T10:32:34;102286.27;;;8.58;81.28
63281;BME280;49406;51.044;3.766;2023-01-30T10:35:16;102281.50;;;8.61;81.24
63281;BME280;49406;51.044;3.766;2023-01-30T10:37:57;102282.79;;;8.63;80.52
63281;BME280;49406;51.044;3.766;2023-01-30T10:40:37;102284.73;;;8.68;81.27
63281;BME280;49406;51.044;3.766;2023-01-30T10:43:21;102286.91;;;8.74;81.26
63281;BME280;49406;51.044;3.766;2023-01-30T10:46:04;102300.87;;;8.80;80.58
63281;BME280;49406;51.044;3.766;2023-01-30T10:48:51;102293.87;;;8.84;79.69
63281;BME280;49406;51.044;3.766;2023-01-30T10:51:37;102307.95;;;8.87;78.86
63281;BME280;49406;51.044;3.766;2023-01-30T10:54:22;102310.35;;;8.90;78.74
63281;BME280;49406;51.044;3.766;2023-01-30T10:57:05;102306.13;;;8.90;78.44
63281;BME280;49406;51.044;3.766;2023-01-30T10:59:51;102306.98;;;8.89;78.06
63281;BME280;49406;51.044;3.766;2023-01-30T11:02:34;102314.48;;;8.89;78.52
63281;BME280;49406;51.044;3.766;2023-01-30T11:05:15;102320.73;;;8.92;79.10
63281;BME280;49406;51.044;3.766;2023-01-30T11:07:51;102320.28;;;8.95;78.97
63281;BME280;49406;51.044;3.766;2023-01-30T11:10:27;102324.08;;;8.98;78.91
63281;BME280;49406;51.044;3.766;2023-01-30T11:13:12;102325.16;;;9.04;79.05
63281;BME280;49406;51.044;3.766;2023-01-30T11:15:50;102327.49;;;9.10;78.36
63281;BME280;49406;51.044;3.766;2023-01-30T11:18:26;102321.40;;;9.10;78.12
63281;BME280;49406;51.044;3.766;2023-01-30T11:21:06;102314.79;;;9.10;77.54
63281;BME280;49406;51.044;3.766;2023-01-30T11:23:42;102317.54;;;9.14;77.02
63281;BME280;49406;51.044;3.766;2023-01-30T11:26:21;102319.22;;;9.13;76.96
63281;BME280;49406;51.044;3.766;2023-01-30T11:28:57;102315.23;;;9.18;77.65
63281;BME280;49406;51.044;3.766;2023-01-30T11:31:31;102322.90;;;9.22;77.22
63281;BME280;49406;51.044;3.766;2023-01-30T11:34:14;102319.93;;;9.22;77.04
63281;BME280;49406;51.044;3.766;2023-01-30T11:36:49;102315.97;;;9.24;77.08
63281;BME280;49406;51.044;3.766;2023-01-30T11:39:28;102317.35;;;9.28;77.07
63281;BME280;49406;51.044;3.766;2023-01-30T11:42:08;102313.35;;;9.28;76.56
63281;BME280;49406;51.044;3.766;2023-01-30T11:44:44;102316.98;;;9.27;77.44
63281;BME280;49406;51.044;3.766;2023-01-30T11:47:23;102305.33;;;9.24;76.94
63281;BME280;49406;51.044;3.766;2023-01-30T11:50:00;102304.25;;;9.23;77.28
63281;BME280;49406;51.044;3.766;2023-01-30T11:52:37;102307.77;;;9.23;77.67
63281;BME280;49406;51.044;3.766;2023-01-30T11:55:14;102305.46;;;9.23;77.46
63281;BME280;49406;51.044;3.766;2023-01-30T11:57:52;102304.10;;;9.23;77.69
63281;BME280;49406;51.044;3.766;2023-01-30T12:00:38;102308.62;;;9.27;77.50
63281;BME280;49406;51.044;3.766;2023-01-30T12:03:17;102311.27;;;9.24;77.08
63281;BME280;49406;51.044;3.766;2023-01-30T12:05:53;102313.77;;;9.11;77.11
63281;BME280;49406;51.044;3.766;2023-01-30T12:08:35;102311.89;;;9.12;78.14
63281;BME280;49406;51.044;3.766;2023-01-30T12:11:26;102317.83;;;9.17;78.06
63281;BME280;49406;51.044;3.766;2023-01-30T12:14:12;102308.50;;;9.10;77.29
63281;BME280;49406;51.044;3.766;2023-01-30T12:17:04;102305.79;;;9.08;78.26
63281;BME280;49406;51.044;3.766;2023-01-30T12:20:01;102305.13;;;9.05;77.85
63281;BME280;49406;51.044;3.766;2023-01-30T12:22:43;102313.62;;;9.03;77.64
63281;BME280;49406;51.044;3.766;2023-01-30T12:25:24;102312.91;;;8.98;77.47
63281;BME280;49406;51.044;3.766;2023-01-30T12:28:03;102316.17;;;8.97;77.64
63281;BME280;49406;51.044;3.766;2023-01-30T12:30:47;102290.93;;;8.93;78.25
63281;BME280;49406;51.044;3.766;2023-01-30T12:33:27;102310.34;;;8.94;78.44
63281;BME280;49406;51.044;3.766;2023-01-30T12:36:11;102307.23;;;9.00;78.37
63281;BME280;49406;51.044;3.766;2023-01-30T12:39:00;102304.98;;;9.05;78.58
63281;BME280;49406;51.044;3.766;2023-01-30T12:41:49;102300.35;;;9.07;78.14
63281;BME280;49406;51.044;3.766;2023-01-30T12:44:44;102302.09;;;9.07;78.41
63281;BME280;49406;51.044;3.766;2023-01-30T12:47:46;102299.65;;;9.12;79.20
63281;BME280;49406;51.044;3.766;2023-01-30T12:50:36;102301.77;;;9.13;78.30
63281;BME280;49406;51.044;3.766;2023-01-30T12:53:36;102309.51;;;9.09;78.33
63281;BME280;49406;51.044;3.766;2023-01-30T12:56:28;102307.39;;;9.04;78.53
63281;BME280;49406;51.044;3.766;2023-01-30T12:59:10;102311.42;;;9.09;78.99
63281;BME280;49406;51.044;3.766;2023-01-30T13:01:54;102310.40;;;9.15;78.33
63281;BME280;49406;51.044;3.766;2023-01-30T13:04:39;102314.33;;;9.12;78.61
63281;BME280;49406;51.044;3.766;2023-01-30T13:07:20;102320.29;;;9.08;78.90
63281;BME280;49406;51.044;3.766;2023-01-30T13:10:06;102320.33;;;9.10;78.75
63281;BME280;49406;51.044;3.766;2023-01-30T13:12:48;102327.73;;;9.16;78.80
63281;BME280;49406;51.044;3.766;2023-01-30T13:15:29;102333.18;;;9.26;79.28
63281;BME280;49406;51.044;3.766;2023-01-30T13:18:11;102325.30;;;9.30;78.58
63281;BME280;49406;51.044;3.766;2023-01-30T13:20:57;102318.94;;;9.28;78.67
63281;BME280;49406;51.044;3.766;2023-01-30T13:23:42;102324.25;;;9.21;78.86
63281;BME280;49406;51.044;3.766;2023-01-30T13:26:26;102318.86;;;9.12;78.89
63281;BME280;49406;51.044;3.766;2023-01-30T13:29:08;102324.92;;;9.06;79.55
63281;BME280;49406;51.044;3.766;2023-01-30T13:31:49;102320.11;;;8.99;79.48
63281;BME280;49406;51.044;3.766;2023-01-30T13:34:29;102318.11;;;8.97;80.40
63281;BME280;49406;51.044;3.766;2023-01-30T13:37:10;102325.42;;;9.01;80.92
63281;BME280;49406;51.044;3.766;2023-01-30T13:39:47;102322.19;;;8.99;80.17
63281;BME280;49406;51.044;3.766;2023-01-30T13:42:28;102317.45;;;8.98;80.31
63281;BME280;49406;51.044;3.766;2023-01-30T13:45:12;102321.53;;;8.95;78.98
63281;BME280;49406;51.044;3.766;2023-01-30T13:47:55;102329.42;;;8.97;79.63
63281;BME280;49406;51.044;3.766;2023-01-30T13:50:44;102328.28;;;8.98;80.33
63281;BME280;49406;51.044;3.766;2023-01-30T13:53:27;102324.30;;;8.99;80.51
63281;BME280;49406;51.044;3.766;2023-01-30T13:56:10;102325.47;;;8.98;80.33
63281;BME280;49406;51.044;3.766;2023-01-30T13:58:54;102336.65;;;8.94;80.01
63281;BME280;49406;51.044;3.766;2023-01-30T14:04:48;102337.98;;;8.92;79.31